Time;durP1;ratioP1;P1;durP2;ratioP2;P2;SDS_P1;SDS_P2;PMS_P1;PMS_P2;Temp;Humidity;BMP_temperature;BMP_pressure;BME280_temperature;BME280_humidity;BME280_pressure;Samples;Min_cycle;Max_cycle;Signal;HPM_P1;HPM_P2
2023/11/11 00:04:07;;;;;;;0.30;0.30;;;6.60;99.90;;;;;;4400760;32;20067;-60
2023/11/11 00:06:32;;;;;;;0.35;0.35;;;6.70;99.90;;;;;;4403070;32;20128;-59
2023/11/11 00:08:58;;;;;;;0.50;0.50;;;6.50;99.90;;;;;;4401494;32;20061;-59
2023/11/11 00:11:23;;;;;;;0.47;0.47;;;6.60;99.90;;;;;;4402952;32;20102;-59
2023/11/11 00:13:51;;;;;;;0.30;0.30;;;6.50;99.90;;;;;;4401723;32;20443;-60
2023/11/11 00:16:16;;;;;;;0.30;0.30;;;6.50;99.90;;;;;;4401269;32;20051;-59
2023/11/11 00:18:42;;;;;;;0.32;0.32;;;6.50;99.90;;;;;;4401119;32;20077;-58
2023/11/11 00:21:07;;;;;;;3.83;0.95;;;6.50;99.90;;;;;;4388944;32;20074;-60
2023/11/11 00:23:35;;;;;;;0.30;0.30;;;6.50;99.90;;;;;;4401827;32;20090;-59
2023/11/11 00:26:00;;;;;;;0.20;0.20;;;6.50;99.90;;;;;;4405543;32;20078;-59
2023/11/11 00:28:28;;;;;;;0.40;0.40;;;6.40;99.90;;;;;;4406160;32;20098;-59
2023/11/11 00:30:54;;;;;;;0.28;0.28;;;6.40;99.90;;;;;;4405571;32;20132;-59
2023/11/11 00:33:20;;;;;;;0.35;0.35;;;6.50;99.90;;;;;;4402715;32;20106;-59
2023/11/11 00:35:45;;;;;;;0.30;0.30;;;6.50;99.90;;;;;;4401782;32;20062;-59
2023/11/11 00:38:11;;;;;;;0.47;0.47;;;6.40;99.90;;;;;;4402379;32;20097;-57
2023/11/11 00:40:39;;;;;;;0.45;0.45;;;6.30;99.90;;;;;;4403770;32;20085;-59
2023/11/11 00:43:04;;;;;;;0.20;0.20;;;6.30;99.90;;;;;;4404366;32;20576;-59
2023/11/11 00:45:30;;;;;;;0.37;0.37;;;6.20;99.90;;;;;;4404249;32;20110;-59
2023/11/11 00:47:55;;;;;;;0.60;0.60;;;6.10;99.90;;;;;;4406810;32;20541;-59
2023/11/11 00:50:21;;;;;;;0.50;0.50;;;6.10;99.90;;;;;;4404343;32;20529;-59
2023/11/11 00:52:46;;;;;;;0.30;0.30;;;6.10;99.90;;;;;;4401704;32;20082;-59
2023/11/11 00:55:11;;;;;;;0.47;0.47;;;6.10;99.90;;;;;;4403204;32;20070;-58
2023/11/11 00:57:39;;;;;;;1.00;0.65;;;6.10;99.90;;;;;;4404488;32;20090;-60
2023/11/11 01:00:05;;;;;;;0.28;0.28;;;6.20;99.90;;;;;;4405988;32;20077;-60
2023/11/11 01:02:31;;;;;;;0.40;0.40;;;6.20;99.90;;;;;;4402298;32;20269;-60
2023/11/11 01:04:56;;;;;;;0.30;0.30;;;6.20;99.90;;;;;;4405060;32;20091;-60
2023/11/11 01:07:22;;;;;;;1.10;0.55;;;6.20;99.90;;;;;;4403829;32;20053;-60
2023/11/11 01:09:48;;;;;;;0.30;0.30;;;6.30;99.90;;;;;;4404553;32;20081;-60
2023/11/11 01:12:14;;;;;;;0.30;0.30;;;6.30;99.90;;;;;;4400866;32;20205;-60
2023/11/11 01:14:39;;;;;;;0.40;0.40;;;6.40;99.90;;;;;;4405369;32;20600;-59
2023/11/11 01:17:05;;;;;;;0.52;0.52;;;6.30;99.90;;;;;;4402115;32;20443;-60
2023/11/11 01:19:30;;;;;;;0.30;0.30;;;6.30;99.90;;;;;;4401488;32;20163;-59
2023/11/11 01:21:56;;;;;;;0.65;0.55;;;6.10;99.90;;;;;;4403859;32;20074;-57
2023/11/11 01:24:21;;;;;;;0.68;0.68;;;6.10;99.90;;;;;;4406883;32;20482;-59
2023/11/11 01:26:47;;;;;;;0.40;0.40;;;6.20;99.90;;;;;;4405191;32;20082;-60
2023/11/11 01:29:12;;;;;;;0.25;0.25;;;6.10;99.90;;;;;;4403776;32;20595;-60
2023/11/11 01:31:38;;;;;;;0.30;0.30;;;6.00;99.90;;;;;;4401906;32;20173;-60
2023/11/11 01:34:04;;;;;;;1.27;0.65;;;6.10;99.90;;;;;;4403700;32;20090;-59
2023/11/11 01:36:30;;;;;;;0.20;0.20;;;6.10;99.90;;;;;;4406331;32;20061;-58
2023/11/11 01:38:55;;;;;;;0.50;0.50;;;6.20;99.90;;;;;;4405132;32;20123;-59
2023/11/11 01:41:21;;;;;;;0.40;0.40;;;6.20;99.90;;;;;;4389146;32;20538;-58
2023/11/11 01:43:47;;;;;;;0.32;0.32;;;6.10;99.90;;;;;;4404717;32;20563;-59
2023/11/11 01:46:12;;;;;;;0.20;0.20;;;5.90;99.90;;;;;;4402118;32;20062;-59
2023/11/11 01:48:40;;;;;;;0.30;0.30;;;5.80;99.90;;;;;;4400735;32;20448;-59
2023/11/11 01:51:06;;;;;;;0.30;0.30;;;5.90;99.90;;;;;;4404161;32;20059;-59
2023/11/11 01:53:34;;;;;;;0.28;0.28;;;5.80;99.90;;;;;;4401771;32;20081;-58
2023/11/11 01:56:00;;;;;;;0.32;0.32;;;5.70;99.90;;;;;;4406311;32;20054;-59
2023/11/11 01:58:26;;;;;;;0.37;0.35;;;5.60;99.90;;;;;;4400056;32;20070;-59
2023/11/11 02:00:52;;;;;;;0.28;0.28;;;5.60;99.90;;;;;;4402761;32;20067;-59
2023/11/11 02:03:20;;;;;;;0.37;0.37;;;5.70;99.90;;;;;;4403380;32;20074;-59
2023/11/11 02:05:46;;;;;;;0.50;0.50;;;5.70;99.90;;;;;;4389101;32;20062;-58
2023/11/11 02:08:12;;;;;;;0.37;0.37;;;5.80;99.90;;;;;;4402308;32;20578;-59
2023/11/11 02:10:38;;;;;;;0.45;0.43;;;5.80;99.90;;;;;;4402672;32;20098;-59
2023/11/11 02:13:05;;;;;;;0.30;0.30;;;5.70;99.90;;;;;;4402395;32;20077;-59
2023/11/11 02:15:31;;;;;;;0.30;0.30;;;5.70;99.90;;;;;;4400865;32;20660;-60
2023/11/11 02:18:02;;;;;;;0.65;0.45;;;5.60;99.90;;;;;;4404252;32;20072;-58
2023/11/11 02:20:32;;;;;;;0.60;0.60;;;5.60;99.90;;;;;;4404170;32;20088;-59
2023/11/11 02:23:02;;;;;;;0.55;0.55;;;5.50;99.90;;;;;;4403041;32;20561;-60
2023/11/11 02:25:27;;;;;;;0.28;0.28;;;5.40;99.90;;;;;;4401041;32;20070;-60
2023/11/11 02:27:53;;;;;;;1.17;1.08;;;5.40;99.90;;;;;;4401743;32;20074;-59
2023/11/11 02:30:19;;;;;;;0.90;0.90;;;5.30;99.90;;;;;;4403210;32;20078;-58
2023/11/11 02:32:45;;;;;;;0.30;0.30;;;5.20;99.90;;;;;;4400119;32;20085;-59
2023/11/11 02:35:11;;;;;;;0.50;0.50;;;5.10;99.90;;;;;;4403127;32;20094;-59
2023/11/11 02:37:36;;;;;;;0.43;0.43;;;5.00;99.90;;;;;;4398409;32;20537;-59
2023/11/11 02:40:02;;;;;;;0.30;0.30;;;5.00;99.90;;;;;;4399932;32;20174;-57
2023/11/11 02:42:27;;;;;;;0.30;0.30;;;5.00;99.90;;;;;;4402344;32;20073;-60
2023/11/11 02:44:53;;;;;;;0.68;0.68;;;5.00;99.90;;;;;;4405188;32;20136;-58
2023/11/11 02:47:18;;;;;;;0.20;0.20;;;5.00;99.90;;;;;;4402917;32;20085;-58
2023/11/11 02:49:44;;;;;;;1.95;0.73;;;5.00;99.90;;;;;;4404480;32;20089;-59
2023/11/11 02:52:10;;;;;;;0.43;0.43;;;5.00;99.90;;;;;;4401255;32;20062;-58
2023/11/11 02:54:35;;;;;;;0.22;0.22;;;4.90;99.90;;;;;;4403751;32;20099;-59
2023/11/11 02:57:01;;;;;;;0.30;0.30;;;4.90;99.90;;;;;;4398798;32;20496;-58
2023/11/11 02:59:26;;;;;;;0.30;0.30;;;4.90;99.90;;;;;;4402067;32;20089;-58
2023/11/11 03:01:51;;;;;;;0.52;0.52;;;4.90;99.90;;;;;;4403771;32;20089;-59
2023/11/11 03:04:17;;;;;;;0.30;0.30;;;4.90;99.90;;;;;;4403412;32;20516;-58
2023/11/11 03:06:43;;;;;;;0.30;0.30;;;5.00;99.90;;;;;;4400776;32;20115;-58
2023/11/11 03:09:10;;;;;;;0.30;0.30;;;4.90;99.90;;;;;;4406553;32;20621;-58
2023/11/11 03:11:36;;;;;;;0.30;0.30;;;4.90;99.90;;;;;;4401228;32;20074;-59
2023/11/11 03:14:02;;;;;;;0.30;0.30;;;4.80;99.90;;;;;;4402698;32;20078;-57
2023/11/11 03:16:43;;;;;;;0.30;0.30;;;4.90;99.90;;;;;;4401179;32;20070;-58
2023/11/11 03:19:09;;;;;;;0.30;0.30;;;4.90;99.90;;;;;;4403730;32;20090;-59
2023/11/11 03:21:34;;;;;;;0.30;0.30;;;5.00;99.90;;;;;;4403876;32;20149;-59
2023/11/11 03:24:02;;;;;;;1.02;0.43;;;5.00;99.90;;;;;;4401162;32;20124;-58
2023/11/11 03:26:27;;;;;;;0.30;0.30;;;5.00;99.90;;;;;;4400398;32;20081;-59
2023/11/11 03:28:53;;;;;;;0.40;0.40;;;4.80;99.90;;;;;;4403254;32;20512;-57
2023/11/11 03:31:19;;;;;;;0.30;0.30;;;4.90;99.90;;;;;;4400176;32;20166;-58
2023/11/11 03:33:45;;;;;;;0.40;0.40;;;4.80;99.90;;;;;;4404298;32;20407;-59
2023/11/11 03:36:11;;;;;;;2.30;0.85;;;4.80;99.90;;;;;;4401477;32;20071;-59
2023/11/11 03:38:37;;;;;;;0.30;0.30;;;4.70;99.90;;;;;;4403128;32;20124;-57
2023/11/11 03:41:02;;;;;;;0.30;0.30;;;4.60;99.90;;;;;;4402470;32;20081;-58
2023/11/11 03:43:28;;;;;;;0.30;0.30;;;4.50;99.90;;;;;;4403609;32;20069;-59
2023/11/11 03:45:53;;;;;;;0.40;0.40;;;4.60;99.90;;;;;;4402010;32;20591;-58
2023/11/11 03:48:19;;;;;;;0.30;0.30;;;4.60;99.90;;;;;;4404001;32;20446;-58
2023/11/11 03:50:44;;;;;;;3.12;1.05;;;4.60;99.90;;;;;;4400203;32;20078;-57
2023/11/11 03:53:10;;;;;;;0.37;0.37;;;4.60;99.90;;;;;;4402699;32;20054;-59
2023/11/11 03:55:36;;;;;;;0.30;0.30;;;4.70;99.90;;;;;;4401142;32;20124;-59
2023/11/11 03:58:01;;;;;;;0.20;0.20;;;4.70;99.90;;;;;;4403967;32;20510;-59
2023/11/11 04:00:27;;;;;;;0.30;0.30;;;4.80;99.90;;;;;;4401174;32;20070;-58
2023/11/11 04:02:53;;;;;;;0.30;0.30;;;4.80;99.90;;;;;;4405315;32;20142;-59
2023/11/11 04:05:20;;;;;;;0.45;0.45;;;4.80;99.90;;;;;;4404612;32;20084;-59
2023/11/11 04:07:46;;;;;;;0.35;0.35;;;4.80;99.90;;;;;;4403317;32;20069;-59
2023/11/11 04:10:12;;;;;;;0.30;0.30;;;4.80;99.90;;;;;;4403463;32;20487;-59
2023/11/11 04:12:39;;;;;;;0.28;0.28;;;4.80;99.90;;;;;;4401702;32;20073;-59
2023/11/11 04:15:06;;;;;;;0.32;0.32;;;4.80;99.90;;;;;;4404448;32;20062;-58
2023/11/11 04:17:31;;;;;;;0.70;0.70;;;4.80;99.90;;;;;;4405377;32;20081;-58
2023/11/11 04:19:57;;;;;;;0.95;0.95;;;4.80;99.90;;;;;;4401421;32;20423;-59
2023/11/11 04:22:22;;;;;;;0.43;0.43;;;4.80;99.90;;;;;;4403945;32;20077;-59
2023/11/11 04:24:48;;;;;;;0.30;0.30;;;4.90;99.90;;;;;;4404511;32;20069;-59
2023/11/11 04:27:13;;;;;;;0.30;0.30;;;5.00;99.90;;;;;;4404540;32;20066;-59
2023/11/11 04:29:40;;;;;;;0.30;0.30;;;4.90;99.90;;;;;;4403434;32;20094;-58
2023/11/11 04:32:07;;;;;;;0.85;0.70;;;5.00;99.90;;;;;;4404920;32;20089;-59
2023/11/11 04:34:33;;;;;;;0.70;0.70;;;5.10;99.90;;;;;;4390882;32;20081;-59
2023/11/11 04:36:59;;;;;;;0.40;0.40;;;5.10;99.90;;;;;;4403966;32;20102;-59
2023/11/11 04:39:25;;;;;;;0.40;0.40;;;5.10;99.90;;;;;;4400939;32;20066;-59
2023/11/11 04:41:51;;;;;;;0.20;0.20;;;5.10;99.90;;;;;;4403353;32;20121;-59
2023/11/11 04:44:16;;;;;;;0.40;0.40;;;5.20;99.90;;;;;;4405647;32;20077;-59
2023/11/11 04:46:42;;;;;;;0.40;0.40;;;5.20;99.90;;;;;;4403714;32;20108;-59
2023/11/11 04:49:09;;;;;;;0.28;0.28;;;5.20;99.90;;;;;;4405591;32;20546;-58
2023/11/11 04:51:35;;;;;;;0.25;0.25;;;5.30;99.90;;;;;;4404696;32;20675;-59
2023/11/11 04:54:00;;;;;;;0.30;0.30;;;5.30;99.90;;;;;;4402861;32;20069;-59
2023/11/11 04:56:26;;;;;;;0.20;0.20;;;5.20;99.90;;;;;;4403613;32;20108;-59
2023/11/11 04:58:51;;;;;;;0.30;0.30;;;5.30;99.90;;;;;;4400644;32;20078;-59
2023/11/11 05:01:17;;;;;;;0.37;0.37;;;5.40;99.90;;;;;;4404459;32;20070;-59
2023/11/11 05:03:45;;;;;;;2.60;0.80;;;5.50;99.90;;;;;;4404890;32;20090;-59
2023/11/11 05:06:11;;;;;;;0.88;0.88;;;5.40;99.90;;;;;;4404380;32;20065;-59
2023/11/11 05:08:36;;;;;;;0.40;0.40;;;5.40;99.90;;;;;;4403572;32;21349;-59
2023/11/11 05:11:02;;;;;;;0.95;0.82;;;5.30;99.90;;;;;;4404057;32;20514;-59
2023/11/11 05:13:28;;;;;;;0.40;0.40;;;5.30;99.90;;;;;;4405804;32;20073;-58
2023/11/11 05:16:10;;;;;;;0.28;0.28;;;5.30;99.90;;;;;;4404625;32;20066;-59
2023/11/11 05:18:36;;;;;;;0.40;0.40;;;5.30;99.90;;;;;;4404310;32;20089;-60
2023/11/11 05:21:02;;;;;;;0.40;0.40;;;5.30;99.90;;;;;;4403115;32;20054;-60
2023/11/11 05:23:27;;;;;;;1.37;0.80;;;5.30;99.90;;;;;;4403339;32;20431;-60
2023/11/11 05:25:54;;;;;;;1.98;1.27;;;5.30;99.90;;;;;;4402238;32;20070;-59
2023/11/11 05:28:20;;;;;;;0.55;0.55;;;5.30;99.90;;;;;;4405610;32;20062;-59
2023/11/11 05:30:45;;;;;;;0.30;0.30;;;5.30;99.90;;;;;;4402896;32;20078;-60
2023/11/11 05:33:11;;;;;;;0.30;0.30;;;5.30;99.90;;;;;;4405426;32;20120;-60
2023/11/11 05:35:37;;;;;;;0.30;0.30;;;5.40;99.90;;;;;;4400266;32;20058;-58
2023/11/11 05:38:02;;;;;;;0.50;0.50;;;5.40;99.90;;;;;;4400353;32;20429;-58
2023/11/11 05:40:29;;;;;;;0.30;0.30;;;5.40;99.90;;;;;;4400664;32;20472;-59
2023/11/11 05:42:57;;;;;;;0.30;0.30;;;5.40;99.90;;;;;;4405038;32;20086;-59
2023/11/11 05:45:22;;;;;;;0.50;0.50;;;5.40;99.90;;;;;;4402877;32;20706;-59
2023/11/11 05:47:47;;;;;;;0.30;0.30;;;5.40;99.90;;;;;;4404165;32;20086;-59
2023/11/11 05:50:13;;;;;;;0.60;0.60;;;5.40;99.90;;;;;;4406627;32;20074;-58
2023/11/11 05:52:39;;;;;;;0.30;0.30;;;5.40;99.90;;;;;;4401550;32;20349;-58
2023/11/11 05:55:08;;;;;;;0.20;0.20;;;5.40;99.90;;;;;;4402577;32;20164;-59
2023/11/11 05:57:34;;;;;;;0.30;0.30;;;5.50;99.90;;;;;;4402284;32;20103;-59
2023/11/11 05:59:59;;;;;;;0.30;0.30;;;5.40;99.90;;;;;;4403480;32;20242;-59
2023/11/11 06:02:25;;;;;;;0.32;0.32;;;5.50;99.90;;;;;;4402652;32;20066;-60
2023/11/11 06:04:50;;;;;;;0.40;0.40;;;5.50;99.90;;;;;;4406972;32;20121;-59
2023/11/11 06:07:16;;;;;;;0.43;0.43;;;5.50;99.90;;;;;;4403265;32;20463;-59
2023/11/11 06:09:42;;;;;;;3.40;0.93;;;5.50;99.90;;;;;;4404199;32;21140;-60
2023/11/11 06:12:08;;;;;;;0.45;0.45;;;5.40;99.90;;;;;;4401210;32;20069;-59
2023/11/11 06:14:34;;;;;;;0.30;0.30;;;5.40;99.90;;;;;;4404782;32;20074;-59
2023/11/11 06:16:59;;;;;;;0.30;0.30;;;5.40;99.90;;;;;;4399478;32;20065;-60
2023/11/11 06:19:26;;;;;;;0.37;0.37;;;5.40;99.90;;;;;;4404485;32;20541;-59
2023/11/11 06:21:52;;;;;;;0.22;0.22;;;5.40;99.90;;;;;;4403994;32;20069;-59
2023/11/11 06:24:17;;;;;;;0.20;0.20;;;5.40;99.90;;;;;;4401166;32;20406;-59
2023/11/11 06:26:43;;;;;;;7.37;0.95;;;5.40;99.90;;;;;;4401894;32;20109;-59
2023/11/11 06:29:09;;;;;;;0.30;0.30;;;5.40;99.90;;;;;;4402613;32;20058;-57
2023/11/11 06:31:35;;;;;;;1.55;0.50;;;5.30;99.90;;;;;;4399350;32;20204;-59
2023/11/11 06:34:01;;;;;;;0.22;0.22;;;5.20;99.90;;;;;;4397624;32;20093;-60
2023/11/11 06:36:27;;;;;;;0.30;0.30;;;5.20;99.90;;;;;;4401901;32;20057;-58
2023/11/11 06:38:52;;;;;;;0.30;0.30;;;5.10;99.90;;;;;;4400158;32;20090;-58
2023/11/11 06:41:19;;;;;;;0.70;0.70;;;5.10;99.90;;;;;;4402105;32;20077;-60
2023/11/11 06:43:45;;;;;;;0.40;0.40;;;5.00;99.90;;;;;;4396950;32;20412;-60
2023/11/11 06:46:12;;;;;;;0.60;0.60;;;5.00;99.90;;;;;;4400578;32;20069;-59
2023/11/11 06:48:38;;;;;;;0.30;0.30;;;5.00;99.90;;;;;;4401986;32;20082;-59
2023/11/11 06:51:04;;;;;;;0.50;0.50;;;5.00;99.90;;;;;;4401073;32;20085;-60
2023/11/11 06:53:29;;;;;;;0.30;0.30;;;5.00;99.90;;;;;;4404084;32;20057;-60
2023/11/11 06:55:55;;;;;;;0.37;0.37;;;5.10;99.90;;;;;;4400986;32;20436;-59
2023/11/11 06:58:20;;;;;;;42.80;1.35;;;5.10;99.90;;;;;;4402449;32;20474;-59
2023/11/11 07:00:46;;;;;;;0.40;0.40;;;5.10;99.90;;;;;;4400380;32;20220;-58
2023/11/11 07:03:12;;;;;;;0.30;0.30;;;5.20;99.90;;;;;;4402708;32;20082;-58
2023/11/11 07:05:37;;;;;;;0.45;0.45;;;5.20;99.90;;;;;;4401463;32;20090;-59
2023/11/11 07:08:05;;;;;;;0.35;0.35;;;5.30;99.90;;;;;;4404434;32;20074;-60
2023/11/11 07:10:30;;;;;;;0.30;0.30;;;5.30;99.90;;;;;;4403038;32;20113;-59
2023/11/11 07:12:56;;;;;;;0.50;0.50;;;5.30;99.90;;;;;;4403032;32;20592;-60
2023/11/11 07:15:22;;;;;;;1.52;0.95;;;5.30;99.90;;;;;;4401800;32;20160;-60
2023/11/11 07:17:48;;;;;;;0.65;0.62;;;5.50;99.90;;;;;;4402080;32;20058;-60
2023/11/11 07:20:19;;;;;;;0.35;0.35;;;5.50;99.90;;;;;;4402059;32;20082;-60
2023/11/11 07:22:45;;;;;;;0.60;0.60;;;5.50;99.90;;;;;;4399373;32;20081;-60
2023/11/11 07:25:11;;;;;;;0.90;0.70;;;5.50;99.90;;;;;;4397595;32;20073;-59
2023/11/11 07:27:36;;;;;;;0.40;0.40;;;5.60;99.90;;;;;;4401148;32;20452;-60
2023/11/11 07:30:05;;;;;;;0.30;0.30;;;5.60;99.90;;;;;;4401797;32;20081;-60
2023/11/11 07:32:31;;;;;;;0.45;0.45;;;5.50;99.90;;;;;;4402942;32;20085;-59
2023/11/11 07:34:57;;;;;;;0.37;0.37;;;5.60;99.90;;;;;;4396337;32;20570;-60
2023/11/11 07:37:24;;;;;;;0.35;0.35;;;5.60;99.90;;;;;;4403790;32;20513;-59
2023/11/11 07:39:50;;;;;;;0.30;0.30;;;5.70;99.90;;;;;;4405160;32;20083;-59
2023/11/11 07:42:16;;;;;;;0.30;0.30;;;5.70;99.90;;;;;;4400936;32;20132;-59
2023/11/11 07:44:42;;;;;;;0.25;0.25;;;5.70;99.90;;;;;;4400542;32;20128;-57
2023/11/11 07:47:10;;;;;;;0.30;0.30;;;5.80;99.90;;;;;;4403203;32;20431;-58
2023/11/11 07:49:36;;;;;;;0.30;0.30;;;5.80;99.90;;;;;;4402947;32;20061;-61
2023/11/11 07:52:02;;;;;;;0.43;0.43;;;5.90;99.90;;;;;;4388718;32;20138;-60
2023/11/11 07:54:31;;;;;;;0.40;0.40;;;5.90;99.90;;;;;;4400912;32;20094;-60
2023/11/11 07:56:57;;;;;;;0.30;0.30;;;6.00;99.90;;;;;;4400761;32;20105;-59
2023/11/11 07:59:22;;;;;;;0.22;0.22;;;5.90;99.90;;;;;;4403248;32;20092;-60
2023/11/11 08:01:48;;;;;;;1.75;0.90;;;6.00;99.90;;;;;;4402928;32;20069;-60
2023/11/11 08:04:13;;;;;;;0.30;0.30;;;6.00;99.90;;;;;;4401871;32;20525;-59
2023/11/11 08:06:39;;;;;;;0.40;0.40;;;6.10;99.90;;;;;;4400624;32;20079;-61
2023/11/11 08:09:04;;;;;;;0.22;0.22;;;6.10;99.90;;;;;;4401194;32;20132;-60
2023/11/11 08:11:30;;;;;;;0.50;0.50;;;6.20;99.90;;;;;;4402056;32;20070;-61
2023/11/11 08:13:56;;;;;;;0.35;0.35;;;6.30;99.90;;;;;;4400328;32;20083;-61
2023/11/11 08:16:21;;;;;;;1.77;0.50;;;6.40;99.90;;;;;;4403229;32;20125;-60
2023/11/11 08:18:48;;;;;;;0.30;0.30;;;6.40;99.90;;;;;;4399525;32;20062;-60
2023/11/11 08:21:13;;;;;;;0.37;0.37;;;6.50;99.90;;;;;;4401083;32;20062;-59
2023/11/11 08:23:39;;;;;;;3.87;2.00;;;6.40;99.90;;;;;;4401417;32;20086;-61
2023/11/11 08:26:05;;;;;;;0.30;0.30;;;6.40;99.90;;;;;;4400548;32;20155;-59
2023/11/11 08:28:31;;;;;;;0.37;0.37;;;6.40;99.90;;;;;;4403594;32;20536;-60
2023/11/11 08:30:56;;;;;;;0.43;0.43;;;6.40;99.90;;;;;;4399388;32;20086;-61
2023/11/11 08:33:22;;;;;;;0.62;0.55;;;6.40;99.90;;;;;;4399366;32;20070;-60
2023/11/11 08:35:49;;;;;;;0.28;0.28;;;6.40;99.90;;;;;;4401726;32;20129;-60
2023/11/11 08:38:14;;;;;;;0.30;0.30;;;6.50;99.90;;;;;;4402375;32;20073;-60
2023/11/11 08:40:40;;;;;;;1.55;0.75;;;6.60;99.90;;;;;;4402202;32;20094;-60
2023/11/11 08:43:05;;;;;;;0.20;0.20;;;6.50;99.90;;;;;;4398337;32;20085;-59
2023/11/11 08:45:31;;;;;;;2.22;1.08;;;6.60;99.90;;;;;;4402189;32;20078;-60
2023/11/11 08:47:56;;;;;;;0.37;0.37;;;6.60;99.90;;;;;;4403671;32;20061;-60
2023/11/11 08:50:22;;;;;;;0.73;0.73;;;6.60;99.90;;;;;;4402398;32;20095;-60
2023/11/11 08:52:48;;;;;;;0.30;0.30;;;6.70;99.90;;;;;;4402825;32;20142;-61
2023/11/11 08:55:14;;;;;;;0.40;0.40;;;6.80;99.90;;;;;;4405904;32;20078;-60
2023/11/11 08:57:39;;;;;;;0.35;0.35;;;6.80;99.90;;;;;;4403611;32;20062;-60
2023/11/11 09:00:08;;;;;;;0.90;0.55;;;6.80;99.90;;;;;;4401880;32;20072;-60
2023/11/11 09:02:35;;;;;;;0.30;0.30;;;6.80;99.90;;;;;;4389369;32;20544;-60
2023/11/11 09:05:01;;;;;;;0.30;0.30;;;6.80;99.90;;;;;;4404991;32;20116;-60
2023/11/11 09:07:27;;;;;;;0.50;0.50;;;6.80;99.90;;;;;;4404969;32;20121;-60
2023/11/11 09:09:53;;;;;;;7.07;0.60;;;6.80;99.90;;;;;;4403337;32;20561;-59
2023/11/11 09:12:19;;;;;;;0.28;0.28;;;6.80;99.90;;;;;;4400344;32;20109;-59
2023/11/11 09:14:44;;;;;;;0.30;0.30;;;6.80;99.90;;;;;;4402308;32;20058;-61
2023/11/11 09:17:10;;;;;;;0.68;0.68;;;6.90;99.90;;;;;;4402987;32;20074;-60
2023/11/11 09:19:35;;;;;;;0.50;0.50;;;6.90;99.90;;;;;;4402634;32;20604;-58
2023/11/11 09:22:01;;;;;;;0.28;0.28;;;6.90;99.90;;;;;;4402611;32;20062;-60
2023/11/11 09:24:26;;;;;;;0.40;0.40;;;6.90;99.90;;;;;;4402969;32;20627;-59
2023/11/11 09:26:52;;;;;;;0.62;0.60;;;7.00;99.90;;;;;;4404301;32;20178;-59
2023/11/11 09:29:19;;;;;;;0.37;0.37;;;7.00;99.90;;;;;;4404438;32;20065;-60
2023/11/11 09:31:45;;;;;;;2.58;0.77;;;7.00;99.90;;;;;;4403665;32;20142;-59
2023/11/11 09:34:12;;;;;;;0.20;0.20;;;7.10;99.90;;;;;;4401075;32;20074;-59
2023/11/11 09:36:39;;;;;;;0.20;0.20;;;7.20;99.90;;;;;;4401006;32;20078;-59
2023/11/11 09:39:07;;;;;;;0.30;0.30;;;7.20;99.90;;;;;;4389990;32;20093;-60
2023/11/11 09:41:32;;;;;;;0.40;0.40;;;7.30;99.90;;;;;;4406352;32;20074;-59
2023/11/11 09:43:58;;;;;;;0.40;0.40;;;7.40;99.90;;;;;;4403273;32;20061;-59
2023/11/11 09:46:29;;;;;;;0.98;0.85;;;7.50;99.90;;;;;;4401754;32;20085;-59
2023/11/11 09:48:55;;;;;;;;;;;7.70;99.90;;;;;;4387013;32;20573;-59
2023/11/11 09:51:21;;;;;;;0.40;0.40;;;7.70;99.90;;;;;;4401685;32;19957;-60
2023/11/11 09:53:47;;;;;;;0.55;0.55;;;7.70;99.90;;;;;;4403044;32;20061;-60
2023/11/11 09:56:14;;;;;;;1.40;0.52;;;7.80;99.90;;;;;;4402704;32;20094;-60
2023/11/11 09:58:39;;;;;;;0.50;0.50;;;7.80;99.90;;;;;;4402313;32;20079;-60
2023/11/11 10:01:05;;;;;;;0.37;0.37;;;7.70;99.90;;;;;;4404782;32;20887;-60
2023/11/11 10:03:31;;;;;;;0.32;0.32;;;7.80;99.90;;;;;;4403122;32;20755;-60
2023/11/11 10:05:57;;;;;;;0.70;0.70;;;7.90;99.90;;;;;;4404211;32;20086;-59
2023/11/11 10:08:24;;;;;;;2.87;0.50;;;7.90;99.90;;;;;;4401252;32;20078;-60
2023/11/11 10:10:52;;;;;;;1.30;0.88;;;7.90;99.90;;;;;;4399793;32;20124;-59
2023/11/11 10:13:18;;;;;;;0.30;0.30;;;8.00;99.90;;;;;;4401431;32;20537;-60
2023/11/11 10:15:44;;;;;;;0.30;0.30;;;8.10;99.90;;;;;;4401094;32;20090;-60
2023/11/11 10:18:11;;;;;;;0.30;0.30;;;8.10;99.90;;;;;;4402299;32;20094;-60
2023/11/11 10:20:36;;;;;;;2.30;1.10;;;8.30;99.90;;;;;;4401606;32;20758;-59
2023/11/11 10:23:02;;;;;;;0.43;0.43;;;8.40;99.90;;;;;;4403694;32;20078;-59
2023/11/11 10:25:27;;;;;;;0.40;0.40;;;8.50;99.90;;;;;;4402437;32;20082;-58
2023/11/11 10:27:54;;;;;;;0.50;0.50;;;8.60;99.90;;;;;;4402312;32;20909;-60
2023/11/11 10:30:23;;;;;;;0.40;0.40;;;8.60;99.90;;;;;;4401773;32;20147;-59
2023/11/11 10:32:49;;;;;;;0.40;0.40;;;8.70;99.90;;;;;;4398680;32;20564;-60
2023/11/11 10:35:16;;;;;;;0.30;0.30;;;8.80;99.90;;;;;;4399273;32;20070;-61
2023/11/11 10:37:42;;;;;;;4.20;1.12;;;8.70;99.90;;;;;;4400915;32;20454;-60
2023/11/11 10:40:09;;;;;;;0.30;0.30;;;8.70;99.90;;;;;;4402427;32;20073;-59
2023/11/11 10:42:34;;;;;;;0.73;0.73;;;8.80;99.90;;;;;;4401389;32;20224;-60
2023/11/11 10:45:02;;;;;;;2.87;1.10;;;8.90;99.90;;;;;;4401847;32;20145;-60
2023/11/11 10:47:29;;;;;;;0.43;0.40;;;8.80;99.90;;;;;;4402271;32;20161;-60
2023/11/11 10:49:57;;;;;;;0.30;0.30;;;8.80;99.90;;;;;;4405041;32;20365;-60
2023/11/11 10:52:24;;;;;;;0.40;0.40;;;8.80;99.90;;;;;;4403968;32;20165;-60
2023/11/11 10:54:51;;;;;;;0.50;0.50;;;8.80;99.90;;;;;;4401493;32;20117;-59
2023/11/11 10:57:17;;;;;;;0.60;0.60;;;8.80;99.90;;;;;;4401120;32;20570;-58
2023/11/11 10:59:43;;;;;;;0.20;0.20;;;8.80;99.90;;;;;;4403484;32;20089;-59
2023/11/11 11:02:11;;;;;;;0.30;0.30;;;8.80;99.90;;;;;;4402754;32;20089;-58
2023/11/11 11:04:39;;;;;;;0.20;0.20;;;8.80;99.90;;;;;;4404646;32;20091;-59
2023/11/11 11:07:09;;;;;;;0.20;0.20;;;8.80;99.90;;;;;;4403267;32;20058;-60
2023/11/11 11:09:50;;;;;;;0.35;0.35;;;8.80;99.90;;;;;;4402504;32;20085;-59
2023/11/11 11:12:45;;;;;;;0.30;0.30;;;8.90;99.90;;;;;;4402041;32;20086;-59
2023/11/11 11:15:13;;;;;;;0.35;0.35;;;8.80;99.90;;;;;;4402904;32;20204;-59
2023/11/11 11:17:43;;;;;;;1.83;0.80;;;8.80;99.90;;;;;;4399326;32;20078;-59
2023/11/11 11:20:14;;;;;;;0.30;0.30;;;8.80;99.90;;;;;;4401927;32;20083;-58
2023/11/11 11:22:42;;;;;;;0.62;0.60;;;8.80;99.90;;;;;;4398072;32;20078;-59
2023/11/11 11:28:16;;;;;;;7.50;1.30;;;8.70;99.90;;;;;;4398958;32;20061;-58
2023/11/11 11:30:43;;;;;;;0.50;0.50;;;8.50;99.90;;;;;;4402367;32;20573;-60
2023/11/11 11:33:18;;;;;;;0.30;0.30;;;8.50;99.90;;;;;;4400325;32;20058;-60
2023/11/11 11:35:47;;;;;;;0.30;0.30;;;8.60;99.90;;;;;;4399843;32;20098;-61
2023/11/11 11:38:18;;;;;;;0.40;0.40;;;8.60;99.90;;;;;;4403247;32;20490;-62
2023/11/11 11:40:45;;;;;;;;;;;8.60;99.90;;;;;;4401560;32;20149;-61
2023/11/11 11:43:11;;;;;;;0.30;0.30;;;8.50;99.90;;;;;;4401793;32;20365;-60
2023/11/11 11:45:38;;;;;;;0.35;0.35;;;8.50;99.90;;;;;;4396827;32;20078;-61
2023/11/11 11:48:06;;;;;;;1.10;1.00;;;8.50;99.90;;;;;;4402966;32;20602;-61
2023/11/11 11:50:34;;;;;;;0.60;0.60;;;8.60;99.90;;;;;;4401876;32;85153;-61
2023/11/11 11:53:00;;;;;;;1.08;0.80;;;8.70;99.90;;;;;;4402445;32;20055;-59
2023/11/11 11:55:35;;;;;;;0.65;0.50;;;8.70;99.90;;;;;;4400644;32;20054;-61
2023/11/11 11:58:01;;;;;;;0.40;0.40;;;8.70;99.90;;;;;;4402880;32;20062;-60
2023/11/11 12:00:27;;;;;;;10.32;0.62;;;8.80;99.90;;;;;;4400570;32;20058;-60
2023/11/11 12:02:53;;;;;;;0.30;0.30;;;8.90;99.90;;;;;;4402362;32;20094;-60
2023/11/11 12:05:18;;;;;;;0.93;0.70;;;8.90;99.90;;;;;;4403461;32;20066;-60
2023/11/11 12:07:48;;;;;;;0.40;0.40;;;9.30;99.90;;;;;;4401185;32;20089;-58
2023/11/11 12:10:14;;;;;;;0.50;0.50;;;9.60;99.90;;;;;;4400990;32;20082;-59
2023/11/11 12:12:39;;;;;;;0.30;0.30;;;9.80;99.90;;;;;;4402941;32;20070;-59
2023/11/11 12:15:13;;;;;;;0.95;0.75;;;9.60;99.90;;;;;;4399056;32;20098;-59
2023/11/11 12:17:42;;;;;;;0.50;0.50;;;9.30;99.90;;;;;;4397009;32;20545;-60
2023/11/11 12:20:08;;;;;;;0.45;0.45;;;9.40;99.90;;;;;;4397789;32;21038;-59
2023/11/11 12:22:35;;;;;;;0.50;0.50;;;9.70;99.90;;;;;;4401207;32;20517;-60
2023/11/11 12:25:02;;;;;;;0.40;0.40;;;10.40;99.90;;;;;;4402018;32;20537;-60
2023/11/11 12:27:27;;;;;;;1.40;0.52;;;11.10;99.90;;;;;;4397122;32;20082;-60
2023/11/11 12:29:53;;;;;;;0.30;0.30;;;11.40;99.90;;;;;;4402110;32;20074;-60
2023/11/11 12:32:18;;;;;;;0.40;0.40;;;11.50;99.90;;;;;;4395446;32;20455;-60
2023/11/11 12:34:50;;;;;;;0.28;0.28;;;11.30;99.90;;;;;;4398688;32;20165;-60
2023/11/11 12:37:20;;;;;;;0.30;0.30;;;10.90;99.90;;;;;;4403815;32;20082;-60
2023/11/11 12:39:53;;;;;;;0.30;0.30;;;10.50;99.90;;;;;;4401305;32;20086;-60
2023/11/11 12:42:27;;;;;;;5.32;1.30;;;10.20;99.90;;;;;;4401406;32;20170;-60
2023/11/11 12:44:53;;;;;;;0.50;0.50;;;9.90;99.90;;;;;;4402236;32;20069;-60
2023/11/11 12:47:19;;;;;;;0.70;0.70;;;9.80;99.90;;;;;;4401723;32;20061;-60
2023/11/11 12:49:54;;;;;;;0.45;0.45;;;9.60;99.90;;;;;;4403604;32;20106;-59
2023/11/11 12:52:21;;;;;;;0.30;0.30;;;9.60;99.90;;;;;;4403213;32;20066;-58
2023/11/11 12:54:47;;;;;;;0.35;0.35;;;9.50;99.90;;;;;;4406241;32;20447;-60
2023/11/11 12:57:25;;;;;;;0.40;0.40;;;9.50;99.90;;;;;;4403485;32;20073;-59
2023/11/11 12:59:55;;;;;;;0.30;0.30;;;9.50;99.90;;;;;;4391111;32;20067;-60